createdAt,value
2022-12-19T00:01:36.674Z,79.97
2022-12-19T00:04:09.814Z,80.15
2022-12-19T00:06:43.548Z,79.96
2022-12-19T00:09:12.159Z,79.88
2022-12-19T00:11:39.602Z,79.96
2022-12-19T00:14:06.813Z,80.12
2022-12-19T00:16:33.518Z,80.05
2022-12-19T00:19:01.138Z,79.64
2022-12-19T00:21:29.707Z,79.79
2022-12-19T00:23:57.074Z,79.56
2022-12-19T00:26:26.558Z,79.86
2022-12-19T00:28:58.297Z,79.75
2022-12-19T00:31:26.616Z,79.70
2022-12-19T00:33:53.344Z,79.96
2022-12-19T00:36:22.455Z,79.86
2022-12-19T00:38:51.046Z,79.69
2022-12-19T00:41:26.140Z,79.73
2022-12-19T00:44:02.293Z,79.73
2022-12-19T00:46:32.858Z,79.68
2022-12-19T00:49:00.291Z,79.79
2022-12-19T00:51:29.388Z,79.61
2022-12-19T00:53:56.947Z,79.82
2022-12-19T00:56:29.010Z,79.87
2022-12-19T00:58:55.995Z,79.73
2022-12-19T01:01:27.104Z,80.02
2022-12-19T01:04:26.534Z,79.68
2022-12-19T01:06:42.493Z,79.89
2022-12-19T01:09:13.062Z,79.79
2022-12-19T01:11:58.409Z,80.31
2022-12-19T01:14:25.513Z,79.99
2022-12-19T01:16:52.271Z,80.10
2022-12-19T01:19:19.740Z,79.73
2022-12-19T01:21:46.673Z,79.71
2022-12-19T01:24:13.743Z,80.13
2022-12-19T01:26:44.896Z,79.98
2022-12-19T01:29:12.154Z,80.35
2022-12-19T01:31:38.863Z,79.92
2022-12-19T01:34:05.539Z,80.09
2022-12-19T01:36:32.357Z,79.77
2022-12-19T01:39:01.310Z,79.69
2022-12-19T01:41:27.889Z,80.30
2022-12-19T01:44:04.144Z,80.06
2022-12-19T01:46:36.601Z,79.88
2022-12-19T01:49:03.499Z,80.29
2022-12-19T01:51:40.469Z,80.10
2022-12-19T01:54:10.396Z,80.08
2022-12-19T01:56:41.523Z,80.49
2022-12-19T01:59:13.119Z,80.26
2022-12-19T02:01:51.129Z,80.42
2022-12-19T02:04:21.872Z,80.48
2022-12-19T02:06:48.929Z,80.30
2022-12-19T02:09:15.689Z,80.12
2022-12-19T02:11:42.372Z,80.24
2022-12-19T02:14:09.014Z,80.05
2022-12-19T02:16:52.731Z,79.94
2022-12-19T02:19:58.192Z,80.07
2022-12-19T02:22:47.642Z,80.18
2022-12-19T02:25:30.558Z,79.89
2022-12-19T02:28:37.540Z,80.09
2022-12-19T02:31:25.710Z,79.71
2022-12-19T02:34:41.390Z,80.05
2022-12-19T02:37:15.034Z,80.31
2022-12-19T02:39:47.078Z,80.51
2022-12-19T02:42:17.581Z,80.25
2022-12-19T02:44:49.585Z,80.32
2022-12-19T02:47:17.214Z,79.90
2022-12-19T02:49:43.947Z,79.96
2022-12-19T02:52:33.314Z,80.48
2022-12-19T02:55:11.846Z,80.59
2022-12-19T02:58:08.534Z,80.53
2022-12-19T03:00:43.195Z,80.46
2022-12-19T03:03:47.821Z,80.84
2022-12-19T03:06:35.903Z,81.21
2022-12-19T03:09:16.986Z,81.33
2022-12-19T03:11:45.107Z,81.22
2022-12-19T03:14:14.917Z,80.98
2022-12-19T03:16:41.993Z,80.75
2022-12-19T03:19:10.927Z,81.12
2022-12-19T03:21:46.494Z,81.10
2022-12-19T03:24:16.851Z,81.14
2022-12-19T03:27:02.441Z,80.83
2022-12-19T03:29:37.942Z,80.64
2022-12-19T03:32:07.813Z,80.73
2022-12-19T03:34:45.103Z,80.87
2022-12-19T03:37:15.700Z,80.83
2022-12-19T03:39:43.317Z,80.97
2022-12-19T03:42:29.073Z,80.82
2022-12-19T03:44:58.862Z,80.82
2022-12-19T03:47:35.550Z,81.02
2022-12-19T03:50:02.397Z,81.57
2022-12-19T03:52:53.938Z,81.46
2022-12-19T03:55:27.901Z,81.38
2022-12-19T03:58:10.700Z,81.80
2022-12-19T04:00:41.691Z,82.01
2022-12-19T04:03:09.734Z,81.96
2022-12-19T04:05:37.024Z,81.95
2022-12-19T04:08:06.396Z,81.81
2022-12-19T04:10:35.270Z,81.97
2022-12-19T04:13:05.536Z,81.97
2022-12-19T04:15:55.098Z,82.20
2022-12-19T04:18:22.714Z,81.93
2022-12-19T04:20:55.552Z,82.15
2022-12-19T04:23:29.135Z,82.63
2022-12-19T04:25:59.709Z,82.07
2022-12-19T04:28:38.178Z,83.14
2022-12-19T04:31:05.525Z,82.60
2022-12-19T04:33:32.091Z,83.00
2022-12-19T04:35:59.852Z,82.78
2022-12-19T04:38:27.027Z,83.45
2022-12-19T04:40:53.680Z,83.44
2022-12-19T04:43:20.355Z,83.59
2022-12-19T04:45:47.041Z,83.89
2022-12-19T04:48:15.670Z,83.40
2022-12-19T04:50:42.218Z,83.82
2022-12-19T04:53:08.938Z,84.02
2022-12-19T04:55:36.108Z,83.54
2022-12-19T04:58:05.106Z,83.68
2022-12-19T05:00:31.920Z,84.48
2022-12-19T05:02:58.689Z,83.98
2022-12-19T05:05:25.464Z,83.71
2022-12-19T05:07:52.093Z,83.89
2022-12-19T05:10:18.705Z,83.75
2022-12-19T05:12:45.286Z,84.05
2022-12-19T05:15:11.855Z,85.43
2022-12-19T05:17:40.545Z,86.17
2022-12-19T05:20:08.597Z,85.06
2022-12-19T05:22:35.373Z,86.24
2022-12-19T05:25:01.958Z,85.13
2022-12-19T05:27:28.569Z,85.00
2022-12-19T05:29:55.136Z,85.20
2022-12-19T05:32:22.002Z,85.82
2022-12-19T05:34:48.599Z,85.57
2022-12-19T05:37:15.418Z,85.90
2022-12-19T05:39:41.991Z,85.41
2022-12-19T05:42:12.263Z,86.80
2022-12-19T05:44:39.506Z,86.02
2022-12-19T05:47:09.545Z,86.46
2022-12-19T05:49:37.695Z,86.53
2022-12-19T05:52:04.349Z,86.02
2022-12-19T05:54:31.016Z,85.57
2022-12-19T05:56:57.835Z,86.39
2022-12-19T05:59:26.292Z,86.00
2022-12-19T06:01:53.962Z,86.32
2022-12-19T06:04:20.710Z,86.16
2022-12-19T06:06:47.273Z,86.04
2022-12-19T06:09:13.923Z,87.11
2022-12-19T06:11:40.612Z,86.71
2022-12-19T06:14:07.207Z,87.00
2022-12-19T06:16:33.876Z,86.92
2022-12-19T06:19:00.498Z,86.85
2022-12-19T06:21:27.185Z,86.63
2022-12-19T06:23:54.446Z,86.53
2022-12-19T06:26:22.632Z,86.78
2022-12-19T06:28:50.569Z,86.52
2022-12-19T06:31:18.022Z,86.56
2022-12-19T06:33:45.151Z,86.76
2022-12-19T06:36:19.340Z,86.91
2022-12-19T06:38:46.033Z,86.87
2022-12-19T06:41:31.417Z,86.73
2022-12-19T06:43:59.717Z,86.41
2022-12-19T06:46:26.307Z,86.25
2022-12-19T06:48:53.228Z,86.01
2022-12-19T06:51:20.033Z,86.95
2022-12-19T06:53:46.909Z,86.58
2022-12-19T06:56:15.061Z,86.40
2022-12-19T06:58:41.882Z,86.25
2022-12-19T07:01:28.577Z,86.27
2022-12-19T07:03:55.400Z,86.12
2022-12-19T07:06:22.419Z,86.53
2022-12-19T07:08:49.043Z,86.07
2022-12-19T07:11:15.731Z,86.59
2022-12-19T07:13:42.381Z,86.67
2022-12-19T07:16:09.190Z,86.43
2022-12-19T07:18:38.645Z,86.19
2022-12-19T07:21:05.955Z,86.37
2022-12-19T07:23:33.268Z,86.25
2022-12-19T07:26:00.629Z,86.83
2022-12-19T07:28:27.413Z,86.31
2022-12-19T07:30:54.019Z,86.10
2022-12-19T07:33:21.876Z,86.37
2022-12-19T07:35:49.025Z,86.97
2022-12-19T07:38:15.808Z,86.21
2022-12-19T07:40:42.421Z,86.38
2022-12-19T07:43:09.587Z,86.42
2022-12-19T07:45:37.979Z,86.10
2022-12-19T07:48:06.775Z,86.02
2022-12-19T07:50:34.181Z,86.34
2022-12-19T07:53:01.031Z,86.17
2022-12-19T07:55:28.346Z,86.57
2022-12-19T07:57:55.492Z,86.88
2022-12-19T08:00:22.865Z,86.58
2022-12-19T08:02:49.613Z,86.64
2022-12-19T08:05:16.601Z,86.65
2022-12-19T08:07:43.243Z,86.19
2022-12-19T08:10:12.284Z,86.17
2022-12-19T08:12:39.055Z,86.17
2022-12-19T08:15:06.178Z,86.22
2022-12-19T08:17:34.688Z,86.37
2022-12-19T08:20:01.328Z,86.21
2022-12-19T08:22:29.920Z,86.32
2022-12-19T08:24:57.487Z,86.36
2022-12-19T08:27:24.178Z,86.15
2022-12-19T08:29:51.142Z,86.21
2022-12-19T08:32:21.307Z,86.43
2022-12-19T08:34:49.723Z,86.17
2022-12-19T08:37:16.617Z,86.33
2022-12-19T08:39:43.250Z,86.32
2022-12-19T08:42:09.828Z,86.18
2022-12-19T08:44:36.693Z,86.06
2022-12-19T08:47:03.364Z,86.41
2022-12-19T08:49:29.991Z,86.45
2022-12-19T08:51:56.655Z,86.40
2022-12-19T08:54:23.329Z,86.30
2022-12-19T08:56:50.131Z,86.24
2022-12-19T08:59:30.388Z,86.44
2022-12-19T09:02:01.513Z,86.30
2022-12-19T09:06:04.371Z,86.86
2022-12-19T09:07:16.135Z,86.58
2022-12-19T09:09:44.432Z,86.59
2022-12-19T09:12:12.688Z,86.50
2022-12-19T09:14:39.430Z,86.22
2022-12-19T09:17:06.350Z,86.12
2022-12-19T09:19:33.091Z,86.43
2022-12-19T09:21:59.933Z,86.30
2022-12-19T09:24:26.617Z,86.49
2022-12-19T09:26:53.377Z,86.57
2022-12-19T09:29:21.753Z,86.55
2022-12-19T09:31:56.166Z,86.53
2022-12-19T09:34:37.290Z,86.55
2022-12-19T09:37:17.189Z,87.44
2022-12-19T09:39:48.282Z,87.17
2022-12-19T09:42:42.631Z,86.84
2022-12-19T09:45:32.231Z,87.41
2022-12-19T09:48:00.250Z,87.58
2022-12-19T09:50:52.087Z,87.33
2022-12-19T09:53:33.438Z,87.12
2022-12-19T09:56:00.685Z,87.58
2022-12-19T09:58:33.043Z,87.33
2022-12-19T10:01:04.802Z,87.32
2022-12-19T10:03:43.982Z,88.70
2022-12-19T10:07:11.790Z,87.79
2022-12-19T10:10:45.432Z,87.45
2022-12-19T10:12:45.484Z,87.68
2022-12-19T10:14:56.062Z,87.34
2022-12-19T10:18:10.469Z,87.86
2022-12-19T10:20:39.190Z,87.55
2022-12-19T10:23:09.165Z,87.30
2022-12-19T10:25:53.881Z,87.02
2022-12-19T10:28:39.164Z,87.48
2022-12-19T10:31:33.159Z,87.69
2022-12-19T10:34:09.089Z,87.88
2022-12-19T10:37:25.686Z,88.22
2022-12-19T10:40:10.324Z,88.51
2022-12-19T10:42:49.783Z,87.75
2022-12-19T10:45:19.256Z,87.86
2022-12-19T10:47:56.749Z,88.01
2022-12-19T10:50:28.246Z,87.89
2022-12-19T10:53:07.436Z,87.77
2022-12-19T10:55:47.790Z,88.13
2022-12-19T10:58:22.352Z,88.00
2022-12-19T11:01:11.711Z,88.34
2022-12-19T11:03:41.888Z,87.88
2022-12-19T11:06:37.516Z,87.92
2022-12-19T11:09:22.717Z,88.52
2022-12-19T11:16:42.097Z,88.32
2022-12-19T11:20:24.740Z,88.74
2022-12-19T11:26:25.985Z,87.72
2022-12-19T11:29:31.093Z,88.12
2022-12-19T11:29:33.480Z,87.95
2022-12-19T11:29:36.496Z,88.21
2022-12-19T11:32:43.038Z,87.94
2022-12-19T11:35:18.165Z,88.46
2022-12-19T11:37:57.046Z,88.28
2022-12-19T11:40:33.780Z,88.48
2022-12-19T11:43:43.899Z,88.49
2022-12-19T11:46:22.028Z,88.92
2022-12-19T11:49:23.591Z,88.42
2022-12-19T11:52:02.968Z,88.18
2022-12-19T11:54:40.064Z,88.37
2022-12-19T11:57:10.376Z,88.40
2022-12-19T11:59:38.290Z,88.26
2022-12-19T12:02:34.120Z,88.47
2022-12-19T12:05:31.520Z,88.47
2022-12-19T12:10:17.873Z,88.60
2022-12-19T12:21:23.074Z,89.00
2022-12-19T12:24:17.636Z,88.78
2022-12-19T12:31:26.956Z,88.70
2022-12-19T12:31:30.604Z,88.68
2022-12-19T12:31:46.437Z,90.08
2022-12-19T12:31:52.735Z,88.59
2022-12-19T12:32:00.734Z,89.56
2022-12-19T12:35:54.319Z,89.36
2022-12-19T12:39:24.253Z,90.67
2022-12-19T12:42:32.706Z,89.76
2022-12-19T12:45:00.375Z,90.04
2022-12-19T12:47:28.118Z,89.60
2022-12-19T12:50:03.532Z,89.70
2022-12-19T12:52:43.740Z,90.78
2022-12-19T12:55:25.990Z,89.67
2022-12-19T12:57:52.753Z,89.43
2022-12-19T13:00:29.182Z,89.71
2022-12-19T13:03:12.461Z,90.30
2022-12-19T13:05:55.338Z,89.67
2022-12-19T13:08:46.897Z,89.43
2022-12-19T13:11:38.289Z,89.38
2022-12-19T13:14:06.573Z,89.54
2022-12-19T13:16:45.178Z,89.67
2022-12-19T13:19:21.049Z,89.92
2022-12-19T13:22:08.903Z,89.67
2022-12-19T13:24:53.344Z,89.66
2022-12-19T13:27:19.790Z,89.59
2022-12-19T13:30:00.540Z,89.63
2022-12-19T13:32:40.736Z,89.68
2022-12-19T13:36:14.356Z,89.55
2022-12-19T13:39:48.238Z,89.63
2022-12-19T13:41:49.299Z,90.01
2022-12-19T13:44:20.784Z,89.92
2022-12-19T13:46:47.510Z,90.05
2022-12-19T13:49:28.899Z,90.37
2022-12-19T13:51:59.373Z,90.39
2022-12-19T13:54:31.973Z,90.07
2022-12-19T13:57:00.631Z,90.20
2022-12-19T13:59:37.805Z,90.54
2022-12-19T14:02:14.870Z,90.30
2022-12-19T14:04:41.707Z,90.29
2022-12-19T14:07:43.160Z,90.70
2022-12-19T14:11:32.529Z,90.17
2022-12-19T14:13:44.526Z,90.83
2022-12-19T14:16:34.846Z,90.68
2022-12-19T14:19:24.736Z,90.28
2022-12-19T14:22:07.802Z,90.26
2022-12-19T14:24:38.947Z,90.55
2022-12-19T14:28:19.922Z,90.22
2022-12-19T14:30:27.693Z,90.20
2022-12-19T14:33:45.482Z,90.22
2022-12-19T14:36:10.095Z,90.45
2022-12-19T14:39:23.670Z,90.16
2022-12-19T14:41:46.560Z,90.46
2022-12-19T14:52:08.655Z,90.74
2022-12-19T14:54:14.084Z,90.54
2022-12-19T14:54:22.462Z,90.32
2022-12-19T14:54:37.575Z,90.40
2022-12-19T14:59:01.607Z,90.57
2022-12-19T15:01:33.397Z,90.31
2022-12-19T15:04:49.547Z,90.09
2022-12-19T15:07:07.234Z,90.00
2022-12-19T15:11:03.601Z,90.27
2022-12-19T15:14:52.853Z,90.19
2022-12-19T15:16:07.583Z,89.67
2022-12-19T15:18:40.043Z,89.96
2022-12-19T15:21:12.544Z,89.84
2022-12-19T15:23:39.347Z,89.71
2022-12-19T15:26:13.075Z,89.60
2022-12-19T15:28:47.180Z,89.95
2022-12-19T15:31:41.248Z,89.78
2022-12-19T15:34:36.371Z,90.13
2022-12-19T15:37:04.833Z,89.77
2022-12-19T15:39:31.612Z,89.84
2022-12-19T15:41:59.466Z,89.76
2022-12-19T15:44:32.296Z,90.09
2022-12-19T15:47:00.406Z,89.73
2022-12-19T15:49:27.137Z,89.66
2022-12-19T15:51:53.923Z,89.49
2022-12-19T15:57:36.076Z,89.97
2022-12-19T16:00:07.611Z,89.73
2022-12-19T16:03:13.178Z,89.84
2022-12-19T16:05:23.045Z,89.86
2022-12-19T16:07:49.956Z,89.63
2022-12-19T16:10:16.936Z,89.64
2022-12-19T16:12:49.633Z,89.52
2022-12-19T16:15:29.563Z,89.73
2022-12-19T16:17:57.452Z,89.81
2022-12-19T16:20:29.932Z,89.70
2022-12-19T16:22:56.643Z,89.82
2022-12-19T16:25:33.923Z,89.72
2022-12-19T16:28:01.132Z,89.73
2022-12-19T16:30:30.519Z,89.69
2022-12-19T16:32:57.655Z,90.13
2022-12-19T16:35:55.021Z,89.72
2022-12-19T16:38:13.119Z,90.02
2022-12-19T16:40:40.365Z,89.89
2022-12-19T16:43:12.963Z,90.40
2022-12-19T16:45:39.740Z,90.06
2022-12-19T16:48:27.794Z,91.75
2022-12-19T16:50:54.502Z,90.97
2022-12-19T16:53:21.220Z,90.14
2022-12-19T16:55:48.575Z,89.98
2022-12-19T16:58:27.409Z,89.67
2022-12-19T17:00:57.753Z,90.25
2022-12-19T17:03:37.835Z,90.54
2022-12-19T17:06:04.761Z,90.03
2022-12-19T17:08:32.498Z,89.83
2022-12-19T17:11:00.069Z,89.96
2022-12-19T17:13:27.245Z,89.79
2022-12-19T17:15:57.004Z,90.05
2022-12-19T17:18:39.859Z,89.74
2022-12-19T17:21:06.558Z,89.72
2022-12-19T17:23:33.508Z,89.60
2022-12-19T17:26:00.892Z,89.56
2022-12-19T17:28:29.040Z,89.54
2022-12-19T17:30:58.253Z,89.76
2022-12-19T17:33:30.264Z,89.50
2022-12-19T17:35:57.001Z,89.69
2022-12-19T17:38:23.701Z,89.59
2022-12-19T17:40:50.463Z,89.46
2022-12-19T17:43:17.886Z,89.40
2022-12-19T17:45:44.760Z,89.84
2022-12-19T17:48:20.419Z,89.64
2022-12-19T17:50:47.645Z,89.54
2022-12-19T17:53:15.105Z,89.60
2022-12-19T17:55:42.153Z,89.52
2022-12-19T17:58:10.254Z,89.40
2022-12-19T18:00:38.408Z,89.64
2022-12-19T18:03:17.311Z,89.40
2022-12-19T18:05:44.988Z,89.34
2022-12-19T18:08:26.998Z,89.52
2022-12-19T18:10:56.463Z,89.52
2022-12-19T18:13:24.191Z,90.08
2022-12-19T18:15:51.137Z,89.58
2022-12-19T18:18:20.803Z,89.71
2022-12-19T18:20:47.513Z,89.57
2022-12-19T18:23:19.430Z,89.52
2022-12-19T18:25:46.685Z,89.40
2022-12-19T18:28:14.302Z,89.42
2022-12-19T18:30:42.514Z,89.28
2022-12-19T18:33:19.307Z,89.45
2022-12-19T18:35:47.846Z,89.19
2022-12-19T18:38:22.936Z,89.33
2022-12-19T18:40:54.610Z,89.55
2022-12-19T18:43:21.481Z,89.47
2022-12-19T18:45:51.363Z,89.31
2022-12-19T18:48:26.655Z,89.53
2022-12-19T18:50:54.588Z,89.53
2022-12-19T18:53:23.050Z,89.60
2022-12-19T18:55:51.939Z,89.46
2022-12-19T18:58:20.008Z,89.77
2022-12-19T19:00:48.680Z,89.53
2022-12-19T19:03:18.973Z,89.79
2022-12-19T19:05:46.588Z,89.69
2022-12-19T19:08:22.313Z,89.77
2022-12-19T19:10:59.112Z,89.84
2022-12-19T19:13:27.289Z,90.10
2022-12-19T19:15:57.924Z,89.91
2022-12-19T19:18:29.847Z,90.28
2022-12-19T19:21:01.037Z,90.16
2022-12-19T19:24:48.526Z,90.44
2022-12-19T19:30:15.150Z,90.15
2022-12-19T19:32:46.920Z,89.85
2022-12-19T19:35:16.923Z,90.00
2022-12-19T19:37:44.869Z,90.08
2022-12-19T19:40:12.075Z,89.97
2022-12-19T19:42:38.760Z,89.94
2022-12-19T19:45:05.988Z,89.70
2022-12-19T19:47:36.173Z,89.66
2022-12-19T19:50:07.936Z,89.57
2022-12-19T19:52:34.664Z,89.90
2022-12-19T19:55:01.853Z,89.77
2022-12-19T19:57:28.853Z,89.82
2022-12-19T19:59:55.783Z,89.80
2022-12-19T20:02:22.668Z,89.90
2022-12-19T20:04:49.895Z,89.66
2022-12-19T20:07:17.421Z,89.90
2022-12-19T20:09:44.289Z,89.68
2022-12-19T20:12:12.167Z,89.83
2022-12-19T20:14:39.252Z,89.90
2022-12-19T20:17:05.915Z,89.72
2022-12-19T20:19:32.802Z,89.96
2022-12-19T20:22:00.785Z,89.83
2022-12-19T20:24:29.935Z,90.07
2022-12-19T20:26:57.841Z,90.06
2022-12-19T20:29:25.357Z,89.85
2022-12-19T20:31:52.147Z,90.08
2022-12-19T20:34:20.091Z,89.80
2022-12-19T20:36:46.939Z,90.16
2022-12-19T20:39:13.691Z,89.89
2022-12-19T20:41:40.856Z,90.28
2022-12-19T20:44:07.964Z,90.57
2022-12-19T20:46:34.823Z,90.23
2022-12-19T20:49:02.331Z,90.53
2022-12-19T20:51:29.171Z,90.42
2022-12-19T20:53:56.256Z,90.53
2022-12-19T20:56:23.552Z,90.32
2022-12-19T20:58:50.877Z,90.38
2022-12-19T21:01:20.198Z,90.30
2022-12-19T21:03:48.433Z,90.38
2022-12-19T21:06:18.248Z,90.15
2022-12-19T21:08:45.382Z,90.34
2022-12-19T21:11:12.776Z,90.14
2022-12-19T21:13:39.614Z,90.12
2022-12-19T21:16:08.749Z,90.33
2022-12-19T21:18:39.318Z,90.10
2022-12-19T21:21:07.353Z,90.14
2022-12-19T21:23:34.579Z,90.42
2022-12-19T21:26:03.428Z,90.16
2022-12-19T21:28:32.208Z,90.19
2022-12-19T21:31:05.391Z,90.18
2022-12-19T21:33:31.975Z,90.68
2022-12-19T21:36:05.536Z,90.56
2022-12-19T21:38:36.422Z,90.21
2022-12-19T21:41:07.629Z,90.52
2022-12-19T21:43:35.861Z,90.25
2022-12-19T21:46:12.685Z,90.37
2022-12-19T21:48:50.000Z,90.42
2022-12-19T21:51:19.994Z,90.54
2022-12-19T21:53:47.232Z,90.26
2022-12-19T21:56:23.848Z,90.72
2022-12-19T21:59:04.610Z,90.72
2022-12-19T22:01:32.449Z,90.88
2022-12-19T22:07:47.392Z,90.85
2022-12-19T22:10:14.230Z,90.91
2022-12-19T22:12:41.701Z,90.75
2022-12-19T22:15:09.701Z,90.77
2022-12-19T22:17:36.989Z,90.75
2022-12-19T22:20:04.445Z,90.64
2022-12-19T22:22:31.093Z,90.55
2022-12-19T22:24:57.950Z,90.65
2022-12-19T22:27:25.025Z,90.51
2022-12-19T22:29:51.934Z,90.65
2022-12-19T22:32:18.983Z,90.56
2022-12-19T22:34:49.427Z,90.56
2022-12-19T22:37:16.180Z,90.36
2022-12-19T22:39:43.008Z,90.43
2022-12-19T22:42:10.126Z,90.53
2022-12-19T22:44:36.831Z,90.45
2022-12-19T22:47:04.040Z,90.45
2022-12-19T22:49:31.096Z,91.19
2022-12-19T22:51:59.078Z,91.22
2022-12-19T22:54:26.091Z,91.52
2022-12-19T22:56:53.026Z,91.80
2022-12-19T22:59:19.900Z,91.49
2022-12-19T23:01:46.741Z,91.55
2022-12-19T23:04:15.971Z,91.40
2022-12-19T23:06:43.722Z,91.41
2022-12-19T23:09:16.374Z,91.35
2022-12-19T23:11:46.462Z,91.44
2022-12-19T23:14:15.356Z,91.26
2022-12-19T23:16:43.322Z,91.24
2022-12-19T23:19:14.954Z,91.16
2022-12-19T23:21:41.833Z,91.17
2022-12-19T23:24:08.863Z,90.96
2022-12-19T23:26:37.418Z,91.55
2022-12-19T23:29:07.598Z,91.21
2022-12-19T23:31:34.530Z,91.02
2022-12-19T23:34:01.828Z,91.31
2022-12-19T23:39:15.948Z,91.32
2022-12-19T23:41:43.275Z,91.73
2022-12-19T23:44:10.608Z,91.54
2022-12-19T23:46:38.015Z,91.57
2022-12-19T23:49:05.064Z,91.48
2022-12-19T23:51:32.392Z,91.71
2022-12-19T23:53:59.073Z,91.49
2022-12-19T23:56:29.629Z,91.51
2022-12-19T23:58:56.631Z,91.56
